Alanreed, Texas
Current Conditions -  °F | °C
As of 3:35 PM on Friday 31 Oct 2014 (Local Time) from KPPA Reporting Station
Clear Clear  
Wind Chill: 58°   Ceiling: Unl
Heat Index: 58°   Visibility: 10mi
Dew Point: 29°   Wind: 7mph
Humidity: 33%   Direction: 60°ENE
Pressure: 30.38"   Gusts: NA
Location:  35.21°N, 100.74°W
Report Text: KPPA 312035Z AUTO 06006KT 10SM CLR 14/M02 A3038 RMK AO2 T01421019 PNO
Loading
Personal Weather Stations






























Interactive Weather Map
Tropical Storm Tracking
New forecast layout! Learn more

10-Day Weather Forecast

Advertisements
Track Severe Weather on mobile